Time;durP1;ratioP1;P1;durP2;ratioP2;P2;SDS_P1;SDS_P2;PMS_P1;PMS_P2;Temp;Humidity;BMP_temperature;BMP_pressure;BME280_temperature;BME280_humidity;BME280_pressure;Samples;Min_cycle;Max_cycle;Signal;HPM_P1;HPM_P2
2022/12/04 00:00:05;;;;;;;34.07;20.03;;;;;;;1.97;100.00;95919.69;5029628;28;104995;-63
2022/12/04 00:02:31;;;;;;;34.93;20.30;;;;;;;1.93;100.00;95917.69;5028428;28;105535;-64
2022/12/04 00:04:58;;;;;;;33.33;20.33;;;;;;;1.87;100.00;95918.53;5031170;28;101639;-63
2022/12/04 00:07:25;;;;;;;34.33;19.37;;;;;;;1.86;100.00;95916.91;5030810;27;102899;-63
2022/12/04 00:09:52;;;;;;;34.07;19.17;;;;;;;1.91;100.00;95920.50;5030524;28;102608;-63
2022/12/04 00:12:19;;;;;;;35.00;19.87;;;;;;;1.76;100.00;95911.31;5029228;28;101927;-63
2022/12/04 00:14:46;;;;;;;31.53;19.43;;;;;;;1.71;100.00;95921.59;5030816;27;103036;-63
2022/12/04 00:17:14;;;;;;;33.47;18.63;;;;;;;1.80;100.00;95920.38;5033373;27;104952;-63
2022/12/04 00:19:41;;;;;;;34.93;19.13;;;;;;;1.89;100.00;95916.50;5027598;28;105177;-63
2022/12/04 00:22:09;;;;;;;32.23;19.30;;;;;;;1.77;100.00;95918.97;5028337;27;103113;-63
2022/12/04 00:24:36;;;;;;;34.53;19.70;;;;;;;1.89;100.00;95914.69;5027101;28;101765;-63
2022/12/04 00:27:03;;;;;;;35.00;21.40;;;;;;;1.98;100.00;95936.22;5028432;27;102352;-63
2022/12/04 00:29:29;;;;;;;36.27;20.00;;;;;;;1.85;100.00;95929.22;5026098;28;105677;-63
2022/12/04 00:31:56;;;;;;;32.77;19.03;;;;;;;1.79;100.00;95923.97;5027059;28;101961;-63
2022/12/04 00:34:25;;;;;;;34.90;19.60;;;;;;;1.90;100.00;95920.72;5028268;27;102395;-63
2022/12/04 00:36:52;;;;;;;31.83;19.17;;;;;;;1.88;100.00;95917.50;5027604;27;102557;-63
2022/12/04 00:39:19;;;;;;;34.07;19.07;;;;;;;1.87;100.00;95923.75;5030203;28;101766;-63
2022/12/04 00:41:46;;;;;;;31.23;18.67;;;;;;;1.81;100.00;95928.00;5028009;27;103081;-63
2022/12/04 00:44:13;;;;;;;36.70;20.57;;;;;;;1.75;100.00;95920.19;5028541;27;102430;-63
2022/12/04 00:46:41;;;;;;;33.53;19.90;;;;;;;1.66;100.00;95924.03;5026620;28;105858;-63
2022/12/04 00:49:09;;;;;;;33.93;18.50;;;;;;;1.66;100.00;95927.47;5027710;27;101774;-63
2022/12/04 00:51:38;;;;;;;32.03;18.83;;;;;;;1.68;100.00;95935.09;5028644;28;101897;-63
2022/12/04 00:54:05;;;;;;;33.57;19.20;;;;;;;1.72;100.00;95933.69;5029902;27;102818;-63
2022/12/04 00:56:32;;;;;;;34.83;19.57;;;;;;;1.71;100.00;95929.47;5029560;27;102593;-63
2022/12/04 00:59:00;;;;;;;34.30;20.00;;;;;;;1.74;100.00;95936.91;5033583;27;102040;-63
2022/12/04 01:01:28;;;;;;;33.90;19.23;;;;;;;1.79;100.00;95939.72;5029329;27;102815;-63
2022/12/04 01:03:56;;;;;;;29.97;18.43;;;;;;;1.74;100.00;95935.09;5029534;27;101978;-63
2022/12/04 01:06:25;;;;;;;31.20;18.83;;;;;;;1.83;100.00;95944.34;5030153;27;102683;-63
2022/12/04 01:08:55;;;;;;;32.87;18.13;;;;;;;1.90;100.00;95937.25;5027518;28;105930;-63
2022/12/04 01:11:24;;;;;;;31.23;18.53;;;;;;;1.87;100.00;95942.13;5030103;27;101974;-63
2022/12/04 01:13:51;;;;;;;35.83;19.50;;;;;;;1.69;100.00;95937.53;5029937;27;102831;-63
2022/12/04 01:16:21;;;;;;;27.47;16.73;;;;;;;1.62;100.00;95935.94;5029388;27;102751;-63
2022/12/04 01:18:48;;;;;;;28.50;16.90;;;;;;;1.61;100.00;95929.09;5028208;28;102576;-63
2022/12/04 01:21:15;;;;;;;31.53;17.90;;;;;;;1.58;100.00;95937.38;5030917;28;105333;-63
2022/12/04 01:23:43;;;;;;;27.80;17.57;;;;;;;1.65;100.00;95931.09;5029864;27;102110;-63
2022/12/04 01:26:12;;;;;;;30.80;18.40;;;;;;;1.77;100.00;95942.56;5028046;28;105338;-63
2022/12/04 01:28:40;;;;;;;29.17;17.33;;;;;;;1.65;100.00;95941.56;5027601;28;105512;-63
2022/12/04 01:31:09;;;;;;;29.13;17.73;;;;;;;1.70;100.00;95940.97;5029802;27;101833;-63
2022/12/04 01:33:37;;;;;;;30.20;17.63;;;;;;;1.59;100.00;95946.84;5029171;27;102360;-63
2022/12/04 01:36:06;;;;;;;26.73;16.63;;;;;;;1.63;100.00;95929.69;5029074;27;102495;-63
2022/12/04 01:38:34;;;;;;;31.00;17.87;;;;;;;1.74;100.00;95931.66;5029397;27;101719;-63
2022/12/04 01:41:01;;;;;;;31.03;17.20;;;;;;;1.68;100.00;95929.88;5029161;27;102341;-63
2022/12/04 01:43:33;;;;;;;31.87;18.30;;;;;;;1.75;100.00;95926.22;5030752;28;105423;-63
2022/12/04 01:46:01;;;;;;;26.07;17.10;;;;;;;1.60;100.00;95922.25;5027139;27;105573;-63
2022/12/04 01:48:31;;;;;;;31.90;18.13;;;;;;;1.64;100.00;95928.69;5028900;27;103087;-63
2022/12/04 01:51:05;;;;;;;26.60;17.40;;;;;;;1.67;100.00;95925.66;5029329;27;101827;-63
2022/12/04 01:53:34;;;;;;;28.50;17.03;;;;;;;1.68;100.00;95914.97;5027534;28;105165;-63
2022/12/04 01:56:03;;;;;;;28.33;17.80;;;;;;;1.72;100.00;95915.34;5027390;28;105361;-63
2022/12/04 01:58:37;;;;;;;30.83;18.37;;;;;;;1.64;100.00;95905.09;5028830;27;101949;-63
2022/12/04 02:01:07;;;;;;;28.33;17.13;;;;;;;1.57;100.00;95899.06;5029236;27;102340;-63
2022/12/04 02:03:34;;;;;;;27.07;16.83;;;;;;;1.52;100.00;95907.56;5026532;28;105524;-63
2022/12/04 02:06:03;;;;;;;27.37;16.90;;;;;;;1.57;100.00;95906.94;5031285;28;102001;-63
2022/12/04 02:08:30;;;;;;;30.40;17.83;;;;;;;1.55;100.00;95906.34;5026631;28;105326;-63
2022/12/04 02:11:10;;;;;;;29.13;16.93;;;;;;;1.58;100.00;95896.25;5027641;28;101843;-63
2022/12/04 02:13:47;;;;;;;32.43;18.43;;;;;;;1.65;100.00;95896.22;5029126;27;103393;-63
2022/12/04 02:16:19;;;;;;;27.17;16.03;;;;;;;1.76;100.00;95898.19;5027373;28;105716;-63
2022/12/04 02:18:53;;;;;;;29.73;17.53;;;;;;;1.84;100.00;95890.09;5027649;28;101974;-63
2022/12/04 02:21:26;;;;;;;29.10;18.43;;;;;;;1.83;100.00;95897.16;5028595;27;102292;-63
2022/12/04 02:24:15;;;;;;;27.37;16.83;;;;;;;1.84;100.00;95903.19;5028594;27;103091;-63
2022/12/04 02:26:49;;;;;;;29.33;17.30;;;;;;;1.82;100.00;95900.00;5028934;27;102009;-63
2022/12/04 02:29:30;;;;;;;28.20;17.40;;;;;;;1.90;100.00;95897.94;5031468;27;102596;-63
2022/12/04 02:32:03;;;;;;;26.83;16.53;;;;;;;1.75;100.00;95891.34;5027310;28;102204;-63
2022/12/04 02:34:38;;;;;;;25.87;16.80;;;;;;;1.85;100.00;95889.06;5028949;27;103008;-63
2022/12/04 02:37:09;;;;;;;24.43;15.57;;;;;;;1.87;100.00;95887.06;5026539;28;105289;-63
2022/12/04 02:39:40;;;;;;;27.80;16.00;;;;;;;1.77;100.00;95879.66;5028741;27;101903;-63
2022/12/04 02:42:13;;;;;;;24.53;16.47;;;;;;;1.88;100.00;95883.44;5027059;28;105703;-63
2022/12/04 02:44:45;;;;;;;26.67;17.20;;;;;;;1.92;100.00;95879.38;5026866;28;103687;-63
2022/12/04 02:47:17;;;;;;;27.17;16.10;;;;;;;1.97;100.00;95879.56;5027076;28;101985;-63
2022/12/04 02:49:47;;;;;;;29.37;16.70;;;;;;;1.77;100.00;95882.28;5028891;27;102390;-63
2022/12/04 02:52:19;;;;;;;26.83;16.83;;;;;;;1.87;100.00;95876.59;5031095;27;102624;-63
2022/12/04 02:54:50;;;;;;;27.30;16.23;;;;;;;1.77;100.00;95881.47;5028734;27;102285;-63
2022/12/04 02:57:21;;;;;;;26.80;16.63;;;;;;;1.75;100.00;95875.63;5027342;27;104090;-63
2022/12/04 02:59:52;;;;;;;27.27;16.00;;;;;;;1.79;100.00;95885.47;5031818;27;102238;-63
2022/12/04 03:02:28;;;;;;;26.40;16.80;;;;;;;1.88;100.00;95886.88;5030508;28;105166;-63
2022/12/04 03:04:58;;;;;;;27.37;16.73;;;;;;;1.96;100.00;95881.38;5029921;28;106368;-63
2022/12/04 03:07:30;;;;;;;28.50;17.03;;;;;;;1.96;100.00;95870.06;5031726;27;101808;-63
2022/12/04 03:10:01;;;;;;;29.33;17.27;;;;;;;1.99;100.00;95880.97;5031513;27;104403;-63
2022/12/04 03:12:36;;;;;;;30.13;17.20;;;;;;;2.00;100.00;95876.50;5033298;28;105488;-63
2022/12/04 03:15:10;;;;;;;27.17;16.53;;;;;;;1.99;100.00;95880.97;5030326;28;105142;-63
2022/12/04 03:17:41;;;;;;;27.43;15.23;;;;;;;1.97;100.00;95880.34;5031461;27;102479;-63
2022/12/04 03:20:13;;;;;;;30.33;18.17;;;;;;;1.90;100.00;95870.91;5031482;27;101850;-63
2022/12/04 03:22:42;;;;;;;27.13;16.17;;;;;;;1.99;100.00;95870.47;5030214;28;105768;-63
2022/12/04 03:25:10;;;;;;;25.70;16.17;;;;;;;2.06;100.00;95870.41;5031093;27;103820;-63
2022/12/04 03:27:45;;;;;;;27.33;17.07;;;;;;;2.06;100.00;95870.41;5031283;27;101854;-63
2022/12/04 03:30:17;;;;;;;27.10;17.23;;;;;;;2.03;100.00;95873.47;5030250;28;106115;-63
2022/12/04 03:32:49;;;;;;;26.07;16.57;;;;;;;2.09;100.00;95865.56;5029666;28;105739;-63
2022/12/04 03:35:22;;;;;;;25.70;16.50;;;;;;;1.99;100.00;95862.59;5034963;27;101880;-63
2022/12/04 03:37:54;;;;;;;25.13;16.53;;;;;;;2.06;100.00;95873.03;5030992;28;102587;-63
2022/12/04 03:40:25;;;;;;;25.97;16.30;;;;;;;2.09;100.00;95870.00;5031495;27;101873;-63
2022/12/04 03:42:59;;;;;;;28.70;17.57;;;;;;;2.07;100.00;95864.19;5029914;28;105329;-63
2022/12/04 03:45:30;;;;;;;25.70;16.83;;;;;;;2.16;100.00;95857.66;5030702;27;102686;-63
2022/12/04 03:48:03;;;;;;;27.30;16.83;;;;;;;2.08;100.00;95842.19;5029926;28;101798;-63
2022/12/04 03:50:36;;;;;;;25.77;17.63;;;;;;;2.19;100.00;95846.75;5029727;28;105506;-63
2022/12/04 03:53:11;;;;;;;28.57;18.10;;;;;;;2.12;100.00;95845.97;5029294;28;105396;-63
2022/12/04 03:55:43;;;;;;;27.50;16.43;;;;;;;1.98;100.00;95847.88;5030802;27;101979;-63
2022/12/04 03:58:16;;;;;;;28.07;17.53;;;;;;;2.10;100.00;95845.38;5031973;28;105396;-63
2022/12/04 04:00:47;;;;;;;26.00;17.17;;;;;;;2.20;100.00;95849.16;5029313;28;101929;-63
2022/12/04 04:03:19;;;;;;;27.30;16.70;;;;;;;2.18;100.00;95845.94;5029202;28;105171;-63
2022/12/04 04:05:52;;;;;;;26.40;16.80;;;;;;;2.31;100.00;95848.50;5030233;27;102602;-63
2022/12/04 04:08:28;;;;;;;29.90;18.27;;;;;;;2.21;100.00;95832.41;5030689;27;102183;-63
2022/12/04 04:11:00;;;;;;;28.40;16.90;;;;;;;2.21;100.00;95832.41;5030350;28;102997;-63
2022/12/04 04:24:53;;;;;;;24.50;15.97;;;;;;;2.22;100.00;95843.69;5008933;27;102829;-63
2022/12/04 04:27:20;;;;;;;24.43;16.50;;;;;;;2.24;100.00;95847.72;5030153;27;102749;-63
2022/12/04 04:29:47;;;;;;;28.63;17.93;;;;;;;2.24;100.00;95847.72;5030450;27;101819;-63
2022/12/04 04:32:25;;;;;;;27.93;17.60;;;;;;;2.20;100.00;95845.72;5030262;27;102502;-63
2022/12/04 04:35:01;;;;;;;24.67;16.30;;;;;;;2.25;100.00;95848.53;5028300;28;105336;-63
2022/12/04 04:37:39;;;;;;;28.13;17.40;;;;;;;2.25;100.00;95840.66;5030565;27;101664;-63
2022/12/04 04:40:12;;;;;;;28.00;16.50;;;;;;;2.33;100.00;95829.91;5029134;28;105393;-63
2022/12/04 04:42:47;;;;;;;28.10;16.73;;;;;;;2.23;100.00;95830.38;5028429;28;105678;-63
2022/12/04 04:45:18;;;;;;;23.07;15.13;;;;;;;2.24;100.00;95825.94;5033655;27;101821;-63
2022/12/04 04:47:52;;;;;;;24.80;16.83;;;;;;;2.27;100.00;95826.31;5028182;28;106203;-63
2022/12/04 04:50:21;;;;;;;26.20;16.13;;;;;;;2.28;100.00;95825.28;5028907;28;102443;-63
2022/12/04 04:52:51;;;;;;;28.83;17.53;;;;;;;2.18;100.00;95832.03;5030106;27;102530;-63
2022/12/04 04:55:20;;;;;;;24.10;16.30;;;;;;;2.02;100.00;95822.06;5029875;27;102659;-63
2022/12/04 04:57:47;;;;;;;26.10;17.23;;;;;;;2.11;100.00;95812.91;5029485;27;101689;-63
2022/12/04 05:00:17;;;;;;;25.93;16.90;;;;;;;2.11;100.00;95820.78;5028842;28;105414;-63
2022/12/04 05:02:44;;;;;;;22.87;15.23;;;;;;;2.18;100.00;95818.94;5027570;28;106001;-63
2022/12/04 05:05:13;;;;;;;24.90;16.83;;;;;;;2.28;100.00;95820.06;5028272;28;101976;-63
2022/12/04 05:07:41;;;;;;;25.40;17.27;;;;;;;2.18;100.00;95813.69;5031348;28;105617;-63
2022/12/04 05:10:10;;;;;;;25.30;16.77;;;;;;;2.15;100.00;95817.53;5028458;28;102188;-63
2022/12/04 05:12:36;;;;;;;27.30;16.63;;;;;;;2.14;100.00;95804.63;5029771;27;102571;-63
2022/12/04 05:15:04;;;;;;;23.60;16.13;;;;;;;1.97;100.00;95798.28;5029375;27;102031;-63
2022/12/04 05:17:31;;;;;;;26.00;16.47;;;;;;;1.94;100.00;95810.00;5029987;27;101796;-63
2022/12/04 05:19:57;;;;;;;24.70;15.50;;;;;;;2.16;100.00;95819.13;5027675;28;105279;-63
2022/12/04 05:22:28;;;;;;;22.90;14.63;;;;;;;2.21;100.00;95818.50;5028325;27;102714;-63
2022/12/04 05:24:55;;;;;;;22.47;15.90;;;;;;;2.19;100.00;95812.66;5029915;27;101751;-63
2022/12/04 05:27:25;;;;;;;21.40;15.33;;;;;;;2.21;100.00;95813.25;5032371;28;102376;-63
2022/12/04 05:29:52;;;;;;;21.60;14.83;;;;;;;2.19;100.00;95823.94;5029548;27;101807;-63
2022/12/04 05:32:19;;;;;;;23.87;15.83;;;;;;;2.10;100.00;95830.47;5029695;27;102420;-63
2022/12/04 05:34:47;;;;;;;22.83;15.10;;;;;;;2.15;100.00;95821.97;5028900;28;102582;-63
2022/12/04 05:37:16;;;;;;;21.77;15.13;;;;;;;2.20;100.00;95824.75;5029570;27;101978;-63
2022/12/04 05:39:45;;;;;;;25.17;16.07;;;;;;;2.09;100.00;95822.81;5029731;27;102357;-63
2022/12/04 05:42:13;;;;;;;21.60;15.50;;;;;;;2.18;100.00;95826.78;5027277;28;104355;-63
2022/12/04 05:44:40;;;;;;;24.97;15.77;;;;;;;2.23;100.00;95824.31;5029423;27;102018;-63
2022/12/04 05:47:07;;;;;;;23.87;16.13;;;;;;;2.17;100.00;95815.50;5027985;28;105742;-63
2022/12/04 05:49:35;;;;;;;22.50;15.70;;;;;;;2.20;100.00;95819.50;5030803;28;105376;-63
2022/12/04 05:52:05;;;;;;;23.27;17.13;;;;;;;2.21;100.00;95816.69;5029383;27;102903;-63
2022/12/04 05:54:32;;;;;;;23.30;16.00;;;;;;;2.12;100.00;95804.81;5028654;27;103160;-63
2022/12/04 05:57:01;;;;;;;23.00;15.50;;;;;;;2.22;100.00;95806.97;5029348;27;101823;-63
2022/12/04 05:59:28;;;;;;;23.33;15.77;;;;;;;2.22;100.00;95813.03;5028997;27;102481;-63
2022/12/04 06:01:55;;;;;;;22.07;15.60;;;;;;;2.19;100.00;95802.16;5028520;27;102705;-63
2022/12/04 06:04:22;;;;;;;21.00;15.87;;;;;;;2.08;100.00;95789.75;5029045;27;101790;-63
2022/12/04 06:06:49;;;;;;;20.77;15.23;;;;;;;2.02;100.00;95777.47;5029003;27;102286;-63
2022/12/04 06:09:16;;;;;;;19.70;14.30;;;;;;;1.96;100.00;95780.94;5027094;28;105361;-63
2022/12/04 06:11:44;;;;;;;20.63;14.77;;;;;;;1.99;100.00;95802.31;5032675;27;101882;-63
2022/12/04 06:14:15;;;;;;;20.20;14.20;;;;;;;2.09;100.00;95807.06;5028469;27;102586;-63
2022/12/04 06:16:44;;;;;;;21.03;15.23;;;;;;;2.11;100.00;95805.03;5029100;27;101892;-63
2022/12/04 06:19:13;;;;;;;21.87;14.90;;;;;;;2.05;100.00;95817.19;5028606;28;102467;-63
2022/12/04 06:21:42;;;;;;;17.90;13.30;;;;;;;2.04;100.00;95822.63;5028324;27;104142;-63
2022/12/04 06:24:13;;;;;;;19.03;13.30;;;;;;;1.98;100.00;95818.25;5028812;27;101791;-63
2022/12/04 06:26:41;;;;;;;20.53;14.20;;;;;;;2.10;100.00;95830.47;5027397;28;105111;-63
2022/12/04 06:29:07;;;;;;;18.23;13.53;;;;;;;2.02;100.00;95825.47;5027977;27;102585;-63
2022/12/04 06:31:36;;;;;;;19.57;14.30;;;;;;;1.90;100.00;95816.66;5027316;27;101876;-63
2022/12/04 06:34:05;;;;;;;19.73;14.10;;;;;;;1.79;100.00;95806.03;5035191;28;103308;-63
2022/12/04 06:36:32;;;;;;;24.37;14.87;;;;;;;1.76;100.00;95806.47;5030929;28;101967;-63
2022/12/04 06:38:59;;;;;;;18.07;13.50;;;;;;;1.76;100.00;95812.50;5032359;27;102900;-63
2022/12/04 06:41:28;;;;;;;19.70;15.03;;;;;;;1.76;100.00;95819.56;5029802;28;105977;-63
2022/12/04 06:43:56;;;;;;;19.73;14.10;;;;;;;1.82;100.00;95819.56;5032214;27;101969;-63
2022/12/04 06:46:25;;;;;;;18.80;14.03;;;;;;;1.82;100.00;95816.94;5032488;27;102446;-63
2022/12/04 06:48:54;;;;;;;20.53;14.50;;;;;;;1.86;100.00;95822.56;5030169;28;103766;-63
2022/12/04 06:51:24;;;;;;;19.70;13.77;;;;;;;1.87;100.00;95832.00;5031754;27;101798;-63
2022/12/04 06:53:51;;;;;;;20.40;15.07;;;;;;;1.78;100.00;95822.78;5032053;27;102363;-63
2022/12/04 06:56:21;;;;;;;19.60;14.60;;;;;;;1.72;100.00;95821.00;5034780;27;104608;-63
2022/12/04 06:58:49;;;;;;;21.37;14.50;;;;;;;1.78;100.00;95828.03;5031815;27;102634;-63
2022/12/04 07:01:18;;;;;;;17.80;13.70;;;;;;;1.74;100.00;95821.59;5031338;27;102580;-63
2022/12/04 07:03:46;;;;;;;31.30;14.87;;;;;;;1.70;100.00;95817.78;5031382;27;102006;-63
2022/12/04 07:06:17;;;;;;;18.53;13.83;;;;;;;1.76;100.00;95830.06;5031328;28;102753;-63
2022/12/04 07:08:46;;;;;;;21.13;14.10;;;;;;;1.68;100.00;95838.97;5031425;27;102679;-63
2022/12/04 07:11:14;;;;;;;21.53;14.13;;;;;;;1.92;100.00;95834.81;5030285;28;101861;-63
2022/12/04 07:13:42;;;;;;;21.07;14.57;;;;;;;1.94;100.00;95830.97;5031616;27;102689;-63
2022/12/04 07:16:12;;;;;;;21.97;15.03;;;;;;;1.93;100.00;95825.94;5029676;28;105354;-63
2022/12/04 07:18:40;;;;;;;20.87;14.13;;;;;;;1.84;100.00;95808.84;5035405;27;101761;-63
2022/12/04 07:21:08;;;;;;;21.00;14.23;;;;;;;1.83;100.00;95807.22;5029521;28;105519;-63
2022/12/04 07:23:37;;;;;;;22.33;14.87;;;;;;;1.76;100.00;95802.00;5031476;28;102133;-63
2022/12/04 07:26:05;;;;;;;19.17;14.63;;;;;;;1.68;100.00;95804.06;5030319;28;105165;-63
2022/12/04 07:28:32;;;;;;;22.23;14.13;;;;;;;1.70;100.00;95820.41;5030421;27;102684;-63
2022/12/04 07:31:03;;;;;;;19.77;14.23;;;;;;;1.65;100.00;95835.97;5030090;28;101800;-63
2022/12/04 07:33:30;;;;;;;18.40;14.17;;;;;;;1.68;100.00;95825.03;5031480;28;102541;-63
2022/12/04 07:35:57;;;;;;;20.57;14.47;;;;;;;1.92;100.00;95819.09;5029691;28;105454;-63
2022/12/04 07:38:25;;;;;;;22.50;14.27;;;;;;;1.80;100.00;95812.91;5034792;27;101799;-63
2022/12/04 07:40:56;;;;;;;34.80;14.50;;;;;;;1.62;100.00;95804.91;5030568;27;103087;-63
2022/12/04 07:43:23;;;;;;;23.60;14.30;;;;;;;1.73;100.00;95812.13;5030393;27;101668;-63
2022/12/04 07:45:49;;;;;;;19.97;14.80;;;;;;;1.74;100.00;95822.41;5030856;27;104357;-63
2022/12/04 07:48:16;;;;;;;19.53;14.53;;;;;;;1.82;100.00;95821.34;5030577;27;103341;-63
2022/12/04 07:50:43;;;;;;;19.77;13.57;;;;;;;1.86;100.00;95843.53;5029654;28;102369;-63
2022/12/04 07:53:11;;;;;;;34.07;15.53;;;;;;;1.87;100.00;95834.63;5031275;27;102357;-63
2022/12/04 07:55:38;;;;;;;20.77;14.63;;;;;;;1.93;100.00;95826.75;5029173;28;105516;-63
2022/12/04 07:58:06;;;;;;;36.57;15.10;;;;;;;1.78;100.00;95828.03;5030793;27;101997;-63
2022/12/04 08:00:33;;;;;;;31.70;15.47;;;;;;;1.72;100.00;95815.75;5033890;27;102296;-63
2022/12/04 08:03:00;;;;;;;31.77;17.10;;;;;;;1.63;100.00;95803.91;5028965;28;101875;-63
2022/12/04 08:05:27;;;;;;;25.17;14.67;;;;;;;1.55;100.00;95804.97;5031216;27;102285;-63
2022/12/04 08:07:54;;;;;;;25.70;13.97;;;;;;;1.66;100.00;95816.59;5028901;28;104254;-63
2022/12/04 08:10:21;;;;;;;18.83;13.73;;;;;;;1.79;100.00;95827.00;5030786;27;101793;-63
2022/12/04 08:12:49;;;;;;;17.23;12.23;;;;;;;1.95;100.00;95816.03;5029156;28;105036;-63
2022/12/04 08:15:19;;;;;;;17.03;12.17;;;;;;;1.85;100.00;95841.88;5028815;28;105428;-63
2022/12/04 08:17:45;;;;;;;17.67;13.37;;;;;;;2.10;100.00;95851.44;5030581;28;101713;-63
2022/12/04 08:20:13;;;;;;;17.33;13.33;;;;;;;2.09;100.00;95833.28;5029129;28;105450;-63
2022/12/04 08:22:40;;;;;;;18.77;12.30;;;;;;;1.99;100.00;95843.44;5031777;28;106077;-64
2022/12/04 08:25:08;;;;;;;16.27;13.27;;;;;;;1.95;100.00;95844.88;5027618;28;103752;-63
2022/12/04 08:27:35;;;;;;;18.90;13.83;;;;;;;2.16;100.00;95847.16;5028658;28;103902;-63
2022/12/04 08:30:02;;;;;;;20.13;15.33;;;;;;;2.26;100.00;95842.25;5030777;27;101843;-63
2022/12/04 08:32:31;;;;;;;17.70;13.17;;;;;;;2.47;100.00;95844.53;5030719;27;102476;-63
2022/12/04 08:34:58;;;;;;;16.13;12.50;;;;;;;2.46;100.00;95835.06;5029992;27;102535;-63
2022/12/04 08:37:26;;;;;;;18.77;13.40;;;;;;;2.51;100.00;95848.34;5030271;27;101814;-63
2022/12/04 08:39:53;;;;;;;17.37;12.93;;;;;;;2.63;100.00;95842.16;5029016;28;105213;-63
2022/12/04 08:42:20;;;;;;;15.83;12.90;;;;;;;2.74;100.00;95849.34;5028347;28;105391;-63
2022/12/04 08:44:46;;;;;;;14.90;11.97;;;;;;;2.90;100.00;95842.78;5033728;27;102016;-63
2022/12/04 08:47:13;;;;;;;17.07;13.23;;;;;;;2.90;100.00;95837.50;5029876;27;102918;-63
2022/12/04 08:49:42;;;;;;;16.87;13.53;;;;;;;2.78;100.00;95828.75;5028763;28;101858;-63
2022/12/04 08:52:09;;;;;;;14.57;11.63;;;;;;;2.78;100.00;95826.13;5028451;28;105579;-63
2022/12/04 08:54:36;;;;;;;15.97;12.37;;;;;;;2.88;100.00;95829.84;5027800;27;105580;-63
2022/12/04 08:57:04;;;;;;;13.33;11.37;;;;;;;2.94;100.00;95828.16;5028541;28;101875;-63
2022/12/04 08:59:31;;;;;;;16.20;12.50;;;;;;;2.60;100.00;95832.13;5028422;28;105500;-63
2022/12/04 09:01:58;;;;;;;17.57;12.07;;;;;;;2.30;100.00;95846.06;5028055;28;105201;-63
2022/12/04 09:04:25;;;;;;;14.73;11.80;;;;;;;2.14;100.00;95849.22;5029259;27;101779;-63
2022/12/04 09:06:53;;;;;;;16.43;12.30;;;;;;;2.07;100.00;95843.22;5033010;28;102589;-63
2022/12/04 09:09:20;;;;;;;15.00;11.30;;;;;;;2.13;100.00;95829.25;5029981;27;101653;-63
2022/12/04 09:11:47;;;;;;;13.83;11.60;;;;;;;2.14;100.00;95833.47;5029838;27;102356;-63
2022/12/04 09:14:17;;;;;;;14.33;11.90;;;;;;;2.17;100.00;95830.41;5028067;28;105485;-63
2022/12/04 09:16:45;;;;;;;14.37;11.93;;;;;;;1.98;100.00;95847.88;5029561;27;102050;-63
2022/12/04 09:19:12;;;;;;;15.30;11.97;;;;;;;2.00;100.00;95831.94;5028299;28;105432;-63
2022/12/04 09:21:39;;;;;;;13.70;11.40;;;;;;;2.08;100.00;95831.69;5029207;27;103124;-63
2022/12/04 09:24:08;;;;;;;12.80;10.60;;;;;;;2.26;100.00;95835.22;5028011;28;101804;-63
2022/12/04 09:26:35;;;;;;;13.80;10.73;;;;;;;2.15;100.00;95824.59;5029496;27;102616;-63
2022/12/04 09:29:04;;;;;;;12.80;10.83;;;;;;;2.25;100.00;95827.53;5032196;27;101858;-63
2022/12/04 09:31:32;;;;;;;13.03;11.60;;;;;;;2.14;100.00;95822.97;5029737;27;102355;-63
2022/12/04 09:34:00;;;;;;;14.30;11.90;;;;;;;2.17;100.00;95838.28;5028908;27;102600;-63
2022/12/04 09:36:27;;;;;;;12.90;11.47;;;;;;;2.33;100.00;95845.63;5027942;28;101878;-63
2022/12/04 09:38:55;;;;;;;12.03;10.50;;;;;;;2.44;100.00;95842.31;5029579;27;102445;-63
2022/12/04 09:41:45;;;;;;;11.80;10.57;;;;;;;2.51;100.00;95828.13;5027333;28;105653;-63
2022/12/04 09:44:18;;;;;;;13.07;11.40;;;;;;;2.47;100.00;95820.91;5029255;27;101733;-63
2022/12/04 09:46:52;;;;;;;12.47;10.50;;;;;;;2.38;100.00;95822.19;5027903;28;104893;-63
2022/12/04 09:49:24;;;;;;;13.77;11.60;;;;;;;2.20;100.00;95824.75;5030946;28;104126;-63
2022/12/04 09:51:54;;;;;;;13.80;11.07;;;;;;;1.98;100.00;95818.25;5029669;27;102391;-63
2022/12/04 09:54:26;;;;;;;16.23;13.10;;;;;;;1.97;100.00;95803.53;5027457;28;105431;-63
2022/12/04 09:57:00;;;;;;;15.17;11.70;;;;;;;1.90;100.00;95792.25;5029350;27;101721;-63
2022/12/04 09:59:29;;;;;;;15.37;12.63;;;;;;;2.13;100.00;95782.81;5029178;27;102348;-63
2022/12/04 10:02:02;;;;;;;16.40;12.57;;;;;;;2.17;100.00;95778.78;5028578;27;102529;-63
2022/12/04 10:04:30;;;;;;;16.37;12.67;;;;;;;2.34;100.00;95779.03;5028980;28;102112;-63
2022/12/04 10:07:05;;;;;;;16.83;13.43;;;;;;;2.24;100.00;95776.09;5026688;27;105246;-63
2022/12/04 10:09:39;;;;;;;16.60;13.10;;;;;;;2.21;100.00;95768.66;5028582;27;102704;-63
2022/12/04 10:12:22;;;;;;;18.17;13.93;;;;;;;2.51;100.00;95769.63;5030919;28;101813;-63
2022/12/04 10:15:03;;;;;;;17.77;13.07;;;;;;;2.32;100.00;95765.34;5028810;27;102668;-63
2022/12/04 10:17:47;;;;;;;17.20;13.13;;;;;;;2.59;100.00;95777.22;5029239;27;101723;-63
2022/12/04 10:20:31;;;;;;;17.10;13.43;;;;;;;2.55;100.00;95766.34;5028969;27;102303;-63
2022/12/04 10:23:09;;;;;;;15.60;12.83;;;;;;;2.54;100.00;95766.56;5026976;28;105695;-63
2022/12/04 10:25:38;;;;;;;15.47;12.43;;;;;;;2.63;100.00;95762.66;5027650;28;101867;-63
2022/12/04 10:28:25;;;;;;;16.33;12.10;;;;;;;2.83;100.00;95763.25;5027194;28;105286;-63
2022/12/04 10:30:55;;;;;;;14.50;11.67;;;;;;;2.87;100.00;95749.47;5026400;28;105275;-63
2022/12/04 10:33:27;;;;;;;16.43;13.30;;;;;;;2.59;100.00;95745.72;5028310;27;101822;-63
2022/12/04 10:35:55;;;;;;;20.33;13.40;;;;;;;2.76;100.00;95746.75;5031557;27;102349;-63
2022/12/04 10:38:31;;;;;;;15.93;12.00;;;;;;;2.78;100.00;95745.53;5028783;27;101718;-63
2022/12/04 10:41:02;;;;;;;15.10;12.20;;;;;;;2.75;100.00;95755.66;5028675;27;102491;-63
2022/12/04 10:43:41;;;;;;;14.13;11.87;;;;;;;2.99;100.00;95752.16;5028109;27;102470;-63
2022/12/04 10:46:10;;;;;;;14.50;11.77;;;;;;;3.14;100.00;95742.09;5027288;28;102379;-63
2022/12/04 10:48:40;;;;;;;17.97;12.40;;;;;;;3.25;100.00;95749.25;5028624;28;102383;-63
2022/12/04 10:51:15;;;;;;;14.60;12.23;;;;;;;3.40;100.00;95747.03;5027707;27;102987;-63
2022/12/04 10:53:42;;;;;;;14.93;11.77;;;;;;;3.42;100.00;95747.63;5028327;27;101710;-63
2022/12/04 10:56:12;;;;;;;15.53;11.80;;;;;;;3.49;100.00;95749.13;5028432;27;102863;-63
2022/12/04 10:58:40;;;;;;;16.37;11.93;;;;;;;3.51;100.00;95738.41;5029972;28;105273;-63
2022/12/04 11:01:11;;;;;;;12.70;10.73;;;;;;;3.62;100.00;95748.16;5028237;27;102892;-63
2022/12/04 11:03:39;;;;;;;15.67;12.30;;;;;;;3.64;100.00;95739.03;5025990;28;105326;-63
2022/12/04 11:06:10;;;;;;;12.40;10.77;;;;;;;3.77;100.00;95727.53;5028234;27;101928;-63
2022/12/04 11:08:39;;;;;;;13.40;10.73;;;;;;;3.69;100.00;95727.84;5026806;28;105358;-63
2022/12/04 11:11:10;;;;;;;11.87;10.63;;;;;;;3.38;100.00;95720.97;5026251;28;105570;-63
2022/12/04 11:13:37;;;;;;;16.03;10.23;;;;;;;3.16;100.00;95726.94;5026776;28;101865;-61
2022/12/04 11:16:06;;;;;;;15.70;12.00;;;;;;;3.19;100.00;95722.03;5026823;28;105334;-61
2022/12/04 11:18:35;;;;;;;15.33;12.13;;;;;;;2.98;100.00;95709.38;5029092;27;101831;-61
2022/12/04 11:21:07;;;;;;;15.90;12.23;;;;;;;3.03;100.00;95721.81;5033246;28;101951;-61
2022/12/04 11:23:43;;;;;;;14.53;11.77;;;;;;;2.77;100.00;95712.41;5029391;28;105717;-61
2022/12/04 11:26:11;;;;;;;15.97;12.77;;;;;;;2.65;100.00;95721.22;5031884;27;101736;-61
2022/12/04 11:28:40;;;;;;;13.77;11.77;;;;;;;2.76;100.00;95708.19;5029964;28;105749;-61
2022/12/04 11:31:10;;;;;;;16.27;11.70;;;;;;;2.95;100.00;95711.63;5029423;28;105543;-61